METAR Data

Data at: 1958 UTC 21 Sep 2021

METAR for:LIPZ (Venezia/Polo Arpt, VE, IY)
Text:LIPZ 211950Z 04003KT CAVOK 17/12 Q1024 NOSIG
Temperature: 17.0°C ( 63°F)
Dewpoint: 12.0°C ( 54°F) [RH = 72%]
Pressure (altimeter):30.24 inches Hg (1024.0 mb)
Winds:from the NE (40 degrees) at 3 MPH (3 knots; 1.5 m/s)
Visibility:6 or more sm (10+ km)
Ceiling:ceiling and visibility are OK
Clouds:unknown

TAF for:LIPZ (Venezia/Polo Arpt, VE, IY) issued at 1700 UTC 21 Sep 2021
Text:TAF LIPZ 211700Z 2118/2224 03010KT CAVOK
Forecast period:1800 UTC 21 September 2021 to 1200 UTC 22 September 2021
Forecast type:FROM: standard forecast or significant change
Winds:from the NNE (30 degrees) at 12 MPH (10 knots; 5.1 m/s)
Visibility:6 or more sm (10+ km)
Clouds:missing
Weather:NSW (no significant weather)
Text:BECMG 2212/2214 15008KT
Forecast period:1200 UTC 22 September 2021 to 0000 UTC 23 September 2021
Forecast type:BECOMING: Conditions expected to become as follows by 1400 UTC 22 September 2021
Winds:from the SSE (150 degrees) at 9 MPH (8 knots; 4.1 m/s)
Visibility:6 or more sm (10+ km)
Clouds:missing
Weather:NSW (no significant weather)